Time;durP1;ratioP1;P1;durP2;ratioP2;P2;SDS_P1;SDS_P2;PMS_P1;PMS_P2;Temp;Humidity;BMP_temperature;BMP_pressure;BME280_temperature;BME280_humidity;BME280_pressure;Samples;Min_cycle;Max_cycle;Signal;HPM_P1;HPM_P2
2022/10/02 00:00:01;;;;;;;11.10;6.15;;;11.10;99.90;;;;;;4980845;28;90277;-30
2022/10/02 00:02:41;;;;;;;17.48;6.40;;;11.10;99.90;;;;;;4979913;28;89738;-31
2022/10/02 00:05:23;;;;;;;14.73;5.75;;;11.10;99.90;;;;;;4981031;28;89966;-32
2022/10/02 00:07:59;;;;;;;6.10;4.70;;;11.20;99.90;;;;;;4981747;28;88417;-30
2022/10/02 00:10:44;;;;;;;21.67;5.38;;;11.20;99.90;;;;;;4967765;28;90964;-30
2022/10/02 00:13:32;;;;;;;11.68;5.40;;;11.30;99.90;;;;;;4980156;28;92253;-33
2022/10/02 00:15:57;;;;;;;18.70;6.00;;;11.30;99.90;;;;;;4980616;28;90756;-34
2022/10/02 00:18:33;;;;;;;13.65;5.72;;;11.30;99.90;;;;;;4979989;28;87899;-31
2022/10/02 00:21:37;;;;;;;14.68;7.10;;;11.30;99.90;;;;;;4980856;28;89321;-30
2022/10/02 00:24:05;;;;;;;11.90;4.95;;;11.30;99.90;;;;;;4968522;28;89692;-30
2022/10/02 00:26:46;;;;;;;;;;;11.30;99.90;;;;;;4981270;28;89585;-30
2022/10/02 00:29:34;;;;;;;14.13;5.22;;;11.30;99.90;;;;;;4970141;28;89317;-30
2022/10/02 00:32:21;;;;;;;14.35;5.15;;;11.40;99.90;;;;;;4980857;28;89251;-31
2022/10/02 00:35:06;;;;;;;5.43;3.73;;;11.40;99.90;;;;;;4981058;28;90286;-32
2022/10/02 00:38:07;;;;;;;13.70;4.88;;;11.40;99.90;;;;;;4966262;28;89492;-32
2022/10/02 00:41:15;;;;;;;9.85;6.20;;;11.40;99.90;;;;;;4980534;28;90133;-30
2022/10/02 00:43:59;;;;;;;12.50;5.65;;;11.40;99.90;;;;;;4980803;28;91228;-30
2022/10/02 00:46:46;;;;;;;10.45;5.00;;;11.40;99.90;;;;;;4979929;28;90108;-32
2022/10/02 00:49:31;;;;;;;18.15;4.40;;;11.40;99.90;;;;;;5042767;22;89540;-30
2022/10/02 00:52:17;;;;;;;13.95;4.45;;;11.30;99.90;;;;;;5029583;27;89968;-33
2022/10/02 00:54:52;;;;;;;9.45;4.78;;;11.40;99.90;;;;;;5040945;27;90542;-30
2022/10/02 00:57:23;;;;;;;16.23;5.15;;;11.30;99.90;;;;;;5039823;27;90024;-31
2022/10/02 01:00:14;;;;;;;11.85;4.25;;;11.30;99.90;;;;;;5040336;27;89723;-30
2022/10/02 01:02:43;;;;;;;17.30;4.18;;;11.30;99.90;;;;;;5041275;27;88181;-29
2022/10/02 01:05:09;;;;;;;6.60;3.88;;;11.30;99.90;;;;;;5040895;27;90186;-29
2022/10/02 01:07:39;;;;;;;6.60;3.92;;;11.30;99.90;;;;;;5039336;27;90728;-32
2022/10/02 01:10:06;;;;;;;8.55;4.32;;;11.30;99.90;;;;;;5039807;27;89658;-30
2022/10/02 01:12:31;;;;;;;11.45;4.40;;;11.30;99.90;;;;;;5040569;27;89658;-30
2022/10/02 01:14:57;;;;;;;9.40;5.22;;;11.30;99.90;;;;;;5039879;27;90321;-29
2022/10/02 01:17:31;;;;;;;7.85;5.00;;;11.30;99.90;;;;;;5040419;27;88668;-31
2022/10/02 01:20:00;;;;;;;10.40;4.68;;;11.30;99.90;;;;;;5039908;27;91309;-29
2022/10/02 01:22:33;;;;;;;8.10;4.28;;;11.30;99.90;;;;;;5039834;27;90266;-30
2022/10/02 01:25:05;;;;;;;14.65;5.22;;;11.30;99.90;;;;;;5040350;27;89144;-29
2022/10/02 01:27:32;;;;;;;9.60;5.00;;;11.30;99.90;;;;;;5039303;27;89922;-32
2022/10/02 01:30:10;;;;;;;13.82;4.70;;;11.20;99.90;;;;;;5040134;27;89764;-34
2022/10/02 01:32:40;;;;;;;8.45;4.32;;;11.30;99.90;;;;;;5039414;27;89780;-32
2022/10/02 01:35:07;;;;;;;13.07;4.50;;;11.20;99.90;;;;;;5039893;27;91418;-31
2022/10/02 01:37:36;;;;;;;11.48;4.75;;;11.20;99.90;;;;;;5039601;27;91113;-32
2022/10/02 01:40:08;;;;;;;12.15;4.03;;;11.20;99.90;;;;;;5039778;27;91179;-29
2022/10/02 01:42:34;;;;;;;6.10;4.45;;;11.20;99.90;;;;;;5039790;27;89243;-31
2022/10/02 01:45:01;;;;;;;11.57;4.68;;;11.20;99.90;;;;;;5039576;27;90111;-31
2022/10/02 01:47:45;;;;;;;11.93;4.18;;;11.20;99.90;;;;;;5039334;27;89606;-30
2022/10/02 01:50:17;;;;;;;7.32;4.00;;;11.30;99.90;;;;;;5030922;27;90730;-31
2022/10/02 01:53:17;;;;;;;9.40;3.90;;;11.20;99.90;;;;;;5035993;27;89937;-30
2022/10/02 01:55:54;;;;;;;7.00;3.90;;;11.20;99.90;;;;;;5039214;27;90274;-33
2022/10/02 01:58:47;;;;;;;10.32;4.78;;;11.20;99.90;;;;;;5038740;27;89680;-31
2022/10/02 02:01:24;;;;;;;9.45;3.45;;;11.20;99.90;;;;;;5038623;27;90570;-31
2022/10/02 02:04:10;;;;;;;8.57;3.67;;;11.20;99.90;;;;;;5039406;27;88396;-30
2022/10/02 02:07:13;;;;;;;8.82;4.65;;;11.30;99.90;;;;;;5039271;27;89103;-31
2022/10/02 02:09:49;;;;;;;9.52;4.43;;;11.30;99.90;;;;;;5035311;27;89680;-30
2022/10/02 02:12:21;;;;;;;8.88;3.90;;;11.30;99.90;;;;;;5038333;27;89956;-33
2022/10/02 02:14:51;;;;;;;8.93;4.72;;;11.30;99.90;;;;;;5039288;27;89704;-30
2022/10/02 02:17:28;;;;;;;13.15;4.00;;;11.30;99.90;;;;;;5039191;27;90035;-31
2022/10/02 02:20:09;;;;;;;6.03;4.28;;;11.30;99.90;;;;;;5038697;27;89825;-30
2022/10/02 02:22:43;;;;;;;10.10;4.30;;;11.40;99.90;;;;;;5038630;27;89474;-34
2022/10/02 02:25:17;;;;;;;8.18;4.25;;;11.30;99.90;;;;;;5038361;27;88086;-30
2022/10/02 02:27:48;;;;;;;14.60;5.07;;;11.30;99.90;;;;;;5039146;27;90515;-31
2022/10/02 02:30:15;;;;;;;11.90;4.68;;;11.30;99.90;;;;;;5038183;27;89586;-32
2022/10/02 02:32:54;;;;;;;11.32;4.18;;;11.30;99.90;;;;;;5039504;27;90151;-30
2022/10/02 02:35:29;;;;;;;15.90;4.57;;;11.30;99.90;;;;;;5038439;27;89863;-30
2022/10/02 02:38:02;;;;;;;11.93;4.85;;;11.30;99.90;;;;;;5038820;27;90074;-30
2022/10/02 02:40:31;;;;;;;7.15;4.47;;;11.30;99.90;;;;;;5038406;27;89568;-30
2022/10/02 02:43:24;;;;;;;21.10;5.53;;;11.30;99.90;;;;;;5041678;27;89603;-30
2022/10/02 02:45:58;;;;;;;8.30;4.45;;;11.30;99.90;;;;;;5043274;27;89419;-29
2022/10/02 02:48:38;;;;;;;10.45;4.75;;;11.30;99.90;;;;;;5041531;27;90009;-32
2022/10/02 02:51:11;;;;;;;7.40;4.60;;;11.30;99.90;;;;;;5023729;27;90591;-31
2022/10/02 02:53:39;;;;;;;13.32;5.18;;;11.30;99.90;;;;;;5021883;28;91848;-31
2022/10/02 02:56:12;;;;;;;13.27;4.70;;;11.30;99.90;;;;;;5022298;28;88561;-32
2022/10/02 02:58:45;;;;;;;13.75;4.47;;;11.20;99.90;;;;;;5022230;28;90630;-32
2022/10/02 03:01:10;;;;;;;11.52;4.15;;;11.20;99.90;;;;;;5021138;28;90057;-32
2022/10/02 03:03:36;;;;;;;12.45;4.30;;;11.20;99.90;;;;;;5022192;28;90596;-29
2022/10/02 03:06:06;;;;;;;8.60;4.60;;;11.20;99.90;;;;;;5021971;28;89370;-31
2022/10/02 03:08:36;;;;;;;10.13;4.82;;;11.20;99.90;;;;;;5021648;28;91036;-30
2022/10/02 03:11:26;;;;;;;11.68;4.50;;;11.20;99.90;;;;;;5021818;28;89422;-32
2022/10/02 03:13:51;;;;;;;8.30;3.90;;;11.20;99.90;;;;;;5022018;28;89827;-29
2022/10/02 03:16:49;;;;;;;16.42;4.15;;;11.30;99.90;;;;;;5021226;28;88817;-30
2022/10/02 03:19:31;;;;;;;10.00;4.30;;;11.20;99.90;;;;;;5021751;28;90521;-32
2022/10/02 03:22:03;;;;;;;11.73;3.30;;;11.30;99.90;;;;;;5021534;28;89643;-31
2022/10/02 03:24:45;;;;;;;15.65;6.13;;;11.30;99.90;;;;;;5021711;28;89173;-29
2022/10/02 03:27:25;;;;;;;6.57;3.58;;;11.30;99.90;;;;;;5021827;28;88807;-31
2022/10/02 03:30:00;;;;;;;8.68;2.75;;;11.30;99.90;;;;;;5021794;28;89020;-30
2022/10/02 03:32:28;;;;;;;7.65;4.43;;;11.30;99.90;;;;;;5021583;28;89754;-32
2022/10/02 03:34:56;;;;;;;8.88;5.03;;;11.30;99.90;;;;;;5021689;28;89520;-32
2022/10/02 03:37:26;;;;;;;6.85;3.17;;;11.40;99.90;;;;;;5021140;28;88850;-30
2022/10/02 03:39:52;;;;;;;14.20;4.47;;;11.40;99.90;;;;;;5020913;28;90335;-30
2022/10/02 03:42:23;;;;;;;5.65;3.30;;;11.40;99.90;;;;;;5020781;28;90897;-31
2022/10/02 03:44:49;;;;;;;10.50;3.63;;;11.40;99.90;;;;;;5021055;28;90467;-31
2022/10/02 03:47:15;;;;;;;8.25;3.42;;;11.40;99.90;;;;;;5021583;28;89177;-33
2022/10/02 03:49:40;;;;;;;12.65;2.92;;;11.40;99.90;;;;;;5020774;28;90774;-31
2022/10/02 03:52:12;;;;;;;10.35;4.25;;;11.40;99.90;;;;;;5021799;28;89812;-31
2022/10/02 03:54:38;;;;;;;5.78;2.53;;;11.40;99.90;;;;;;5021001;28;89671;-33
2022/10/02 03:57:07;;;;;;;8.15;3.45;;;11.30;99.90;;;;;;5022187;28;89357;-30
2022/10/02 03:59:46;;;;;;;5.43;2.95;;;11.30;99.90;;;;;;5021499;28;90836;-30
2022/10/02 04:02:21;;;;;;;7.28;2.40;;;11.30;99.90;;;;;;5020688;28;89906;-32
2022/10/02 04:04:54;;;;;;;4.88;2.90;;;11.30;99.90;;;;;;5020843;28;89525;-30
2022/10/02 04:07:27;;;;;;;12.80;3.83;;;11.30;99.90;;;;;;5021178;28;90116;-30
2022/10/02 04:10:30;;;;;;;4.93;2.53;;;11.20;99.90;;;;;;5020957;28;90498;-33
2022/10/02 04:13:22;;;;;;;6.85;2.88;;;11.20;99.90;;;;;;5020853;28;89460;-31
2022/10/02 04:16:04;;;;;;;6.03;3.20;;;11.20;99.90;;;;;;5020613;28;89477;-34
2022/10/02 04:19:08;;;;;;;13.70;2.85;;;11.20;99.90;;;;;;5021194;28;89090;-33
2022/10/02 04:21:42;;;;;;;6.93;3.42;;;11.10;99.90;;;;;;5019954;28;90292;-34
2022/10/02 04:24:48;;;;;;;7.22;3.75;;;11.10;99.90;;;;;;5020627;28;90210;-31
2022/10/02 04:27:30;;;;;;;4.53;2.83;;;11.10;99.90;;;;;;4996613;28;89505;-31
2022/10/02 04:30:03;;;;;;;10.63;3.85;;;11.10;99.90;;;;;;5021352;28;87635;-30
2022/10/02 04:32:31;;;;;;;9.38;3.15;;;11.00;99.90;;;;;;5020340;28;89145;-32
2022/10/02 04:34:57;;;;;;;;;;;11.00;99.90;;;;;;5020652;28;90228;-33
2022/10/02 04:38:05;;;;;;;8.27;3.53;;;11.00;99.90;;;;;;5021685;28;90851;-32
2022/10/02 04:41:09;;;;;;;10.63;2.78;;;11.00;99.90;;;;;;4981543;28;88119;-30
2022/10/02 04:44:08;;;;;;;6.15;2.90;;;10.90;99.90;;;;;;5019973;28;91272;-30
2022/10/02 04:46:44;;;;;;;8.27;2.85;;;10.90;99.90;;;;;;5019876;28;89394;-31
2022/10/02 04:49:23;;;;;;;5.82;3.45;;;10.90;99.90;;;;;;5020219;28;90352;-32
2022/10/02 04:52:13;;;;;;;4.15;3.03;;;10.90;99.90;;;;;;5020754;28;89634;-32
2022/10/02 04:54:57;;;;;;;12.15;3.58;;;10.90;99.90;;;;;;5020714;28;89246;-30
2022/10/02 04:57:52;;;;;;;8.88;2.88;;;10.90;99.90;;;;;;5019774;28;89804;-31
2022/10/02 05:00:23;;;;;;;9.68;3.70;;;10.90;99.90;;;;;;5018329;28;90289;-30
2022/10/02 05:03:27;;;;;;;12.48;3.28;;;10.90;99.90;;;;;;5006181;28;90105;-31
2022/10/02 05:05:53;;;;;;;6.03;3.17;;;10.90;99.90;;;;;;5018962;27;89997;-32
2022/10/02 05:08:50;;;;;;;10.07;3.60;;;10.80;99.90;;;;;;5002138;28;89760;-31
2022/10/02 05:12:00;;;;;;;5.82;3.90;;;10.80;99.90;;;;;;5008687;28;89991;-30
2022/10/02 05:15:02;;;;;;;11.88;3.42;;;10.80;99.90;;;;;;4980433;28;88862;-31
2022/10/02 05:17:52;;;;;;;5.45;2.80;;;10.80;99.90;;;;;;5020227;28;90535;-29
2022/10/02 05:20:50;;;;;;;13.60;3.38;;;10.80;99.90;;;;;;5020008;28;89432;-32
2022/10/02 05:23:35;;;;;;;8.90;3.30;;;10.70;99.90;;;;;;5019961;28;88851;-31
2022/10/02 05:26:13;;;;;;;12.00;3.63;;;10.70;99.90;;;;;;5020077;28;90268;-30
2022/10/02 05:28:57;;;;;;;9.27;3.75;;;10.80;99.90;;;;;;5019623;28;90269;-29
2022/10/02 05:31:35;;;;;;;5.75;3.55;;;10.70;99.90;;;;;;5019302;28;91263;-34
2022/10/02 05:34:12;;;;;;;8.07;3.08;;;10.70;99.90;;;;;;5019746;28;91116;-30
2022/10/02 05:36:53;;;;;;;9.02;4.05;;;10.70;99.90;;;;;;5020270;28;89270;-30
2022/10/02 05:39:26;;;;;;;13.13;4.53;;;10.70;99.90;;;;;;5019977;28;88963;-31
2022/10/02 05:42:14;;;;;;;6.10;3.00;;;10.70;99.90;;;;;;5019784;28;90116;-31
2022/10/02 05:44:52;;;;;;;11.10;3.97;;;10.70;99.90;;;;;;5019699;28;89817;-30
2022/10/02 05:47:25;;;;;;;7.30;3.20;;;10.70;99.90;;;;;;5019149;28;90982;-33
2022/10/02 05:49:56;;;;;;;12.43;3.88;;;10.70;99.90;;;;;;5018858;28;90414;-33
2022/10/02 05:52:34;;;;;;;13.13;3.28;;;10.70;99.90;;;;;;5019979;28;88908;-32
2022/10/02 05:55:22;;;;;;;6.22;3.47;;;10.70;99.90;;;;;;5019670;28;90806;-32
2022/10/02 05:57:53;;;;;;;10.48;3.70;;;10.70;99.90;;;;;;5018896;28;89899;-32
2022/10/02 06:00:23;;;;;;;8.88;4.20;;;10.70;99.90;;;;;;5019183;28;90535;-30
2022/10/02 06:03:11;;;;;;;5.82;3.13;;;10.70;99.90;;;;;;5019611;28;89597;-29
2022/10/02 06:06:12;;;;;;;9.90;4.07;;;10.70;99.90;;;;;;5020033;28;88806;-31
2022/10/02 06:09:06;;;;;;;12.63;4.20;;;10.70;99.90;;;;;;5019502;28;89645;-34
2022/10/02 06:11:45;;;;;;;12.93;4.15;;;10.70;99.90;;;;;;5014718;28;90487;-29
2022/10/02 06:14:22;;;;;;;13.30;3.83;;;10.70;99.90;;;;;;5019645;28;91040;-30
2022/10/02 06:16:58;;;;;;;8.20;2.80;;;10.80;99.90;;;;;;5020393;27;89825;-31
2022/10/02 06:19:36;;;;;;;6.30;2.95;;;10.80;99.90;;;;;;5022034;28;89317;-29
2022/10/02 06:22:16;;;;;;;10.65;3.63;;;10.80;99.90;;;;;;5022678;28;90206;-30
2022/10/02 06:25:06;;;;;;;10.43;3.88;;;10.90;99.90;;;;;;5021402;28;90577;-32
2022/10/02 06:27:43;;;;;;;6.28;2.92;;;10.80;99.90;;;;;;4980246;28;90629;-30
2022/10/02 06:30:12;;;;;;;9.35;4.15;;;10.90;99.90;;;;;;5022880;28;88469;-30
2022/10/02 06:32:42;;;;;;;8.45;3.85;;;10.90;99.90;;;;;;5022366;28;90523;-31
2022/10/02 06:35:34;;;;;;;9.93;4.70;;;10.90;99.90;;;;;;5022636;28;89529;-31
2022/10/02 06:38:17;;;;;;;6.75;3.75;;;11.00;99.90;;;;;;5022388;28;89903;-32
2022/10/02 06:41:06;;;;;;;5.88;3.05;;;11.00;99.90;;;;;;5023129;28;89421;-32
2022/10/02 06:44:01;;;;;;;8.43;3.80;;;11.10;99.90;;;;;;5022162;28;89971;-30
2022/10/02 06:46:51;;;;;;;8.65;3.83;;;11.10;99.90;;;;;;5026855;27;90273;-31
2022/10/02 06:49:34;;;;;;;8.18;3.55;;;11.20;99.90;;;;;;5021641;28;90476;-30
2022/10/02 06:52:15;;;;;;;16.23;4.18;;;11.20;99.90;;;;;;5021825;28;89804;-31
2022/10/02 06:55:31;;;;;;;7.57;3.95;;;11.30;99.90;;;;;;5021990;28;91373;-32
2022/10/02 06:58:12;;;;;;;8.68;4.45;;;11.30;99.90;;;;;;4987069;28;89888;-32
2022/10/02 07:01:07;;;;;;;14.82;4.30;;;11.40;99.90;;;;;;5022363;28;89559;-30
2022/10/02 07:04:17;;;;;;;15.35;4.57;;;11.50;99.90;;;;;;5022083;28;88521;-33
2022/10/02 07:07:07;;;;;;;15.02;4.40;;;11.60;99.90;;;;;;4976235;28;89859;-30
2022/10/02 07:09:45;;;;;;;11.93;4.22;;;11.80;99.90;;;;;;5021734;28;89712;-32
2022/10/02 07:12:19;;;;;;;11.10;3.78;;;11.80;99.90;;;;;;5029559;27;89833;-32
2022/10/02 07:15:03;;;;;;;13.80;5.22;;;12.00;99.90;;;;;;5033251;27;89351;-31
2022/10/02 07:17:59;;;;;;;12.65;4.43;;;12.00;99.90;;;;;;5036633;27;90491;-31
2022/10/02 07:20:39;;;;;;;10.45;3.58;;;12.20;99.90;;;;;;5034363;27;90333;-32
2022/10/02 07:23:37;;;;;;;9.48;3.70;;;12.20;99.90;;;;;;5030703;27;90195;-33
2022/10/02 07:26:16;;;;;;;8.25;3.10;;;12.30;99.90;;;;;;5030639;27;89352;-30
2022/10/02 07:28:54;;;;;;;9.80;3.50;;;12.40;99.90;;;;;;5030017;27;90319;-33
2022/10/02 07:31:40;;;;;;;19.73;5.15;;;12.60;99.90;;;;;;5036280;27;90551;-31
2022/10/02 07:34:15;;;;;;;12.45;4.30;;;12.70;99.90;;;;;;5009715;28;89772;-32
2022/10/02 07:37:13;;;;;;;9.95;3.72;;;12.80;99.90;;;;;;5021860;28;89923;-31
2022/10/02 07:39:57;;;;;;;13.90;4.68;;;13.00;99.90;;;;;;5022120;28;90652;-30
2022/10/02 07:42:34;;;;;;;8.68;4.10;;;13.10;99.90;;;;;;5021109;27;89271;-31
2022/10/02 07:45:03;;;;;;;11.18;5.40;;;13.10;99.90;;;;;;5021062;28;89737;-31
2022/10/02 07:47:37;;;;;;;;;;;13.30;99.90;;;;;;5020906;28;90249;-32
2022/10/02 07:50:24;;;;;;;11.27;3.85;;;13.40;99.90;;;;;;5022433;28;90052;-33
2022/10/02 07:53:19;;;;;;;15.53;4.67;;;13.50;99.90;;;;;;4992700;28;89763;-31
2022/10/02 07:55:52;;;;;;;6.75;3.50;;;13.60;99.90;;;;;;5020623;28;89910;-33
2022/10/02 07:58:37;;;;;;;18.48;4.10;;;13.70;99.90;;;;;;5021734;28;89772;-32
2022/10/02 08:01:11;;;;;;;12.45;4.03;;;13.70;99.90;;;;;;5026305;27;90614;-30
2022/10/02 08:03:54;;;;;;;8.40;4.05;;;13.80;99.90;;;;;;5035038;27;90433;-31
2022/10/02 08:06:20;;;;;;;17.17;4.60;;;13.70;99.90;;;;;;5017514;27;90491;-31
2022/10/02 08:08:51;;;;;;;10.30;4.65;;;13.70;99.90;;;;;;5021455;27;89391;-31
2022/10/02 08:11:21;;;;;;;11.38;4.07;;;13.60;99.90;;;;;;5020241;28;89968;-33
2022/10/02 08:13:59;;;;;;;15.25;3.55;;;13.60;99.90;;;;;;5020392;28;90741;-31
2022/10/02 08:16:35;;;;;;;17.05;4.82;;;13.50;99.90;;;;;;5020388;28;90229;-35
2022/10/02 08:19:06;;;;;;;6.90;2.67;;;13.50;99.90;;;;;;5021132;28;87707;-30
2022/10/02 08:21:38;;;;;;;8.73;4.07;;;13.50;99.90;;;;;;5031114;27;90418;-32
2022/10/02 08:24:14;;;;;;;12.57;4.13;;;13.60;99.90;;;;;;5033475;27;88787;-34
2022/10/02 08:27:13;;;;;;;6.22;3.65;;;13.80;99.90;;;;;;5023557;27;89543;-30
2022/10/02 08:29:55;;;;;;;19.23;4.03;;;13.90;99.90;;;;;;5016993;28;87959;-30
2022/10/02 08:32:21;;;;;;;7.28;3.33;;;14.10;99.90;;;;;;5020344;28;90077;-31
2022/10/02 08:34:47;;;;;;;11.68;4.10;;;14.20;99.90;;;;;;5020561;28;89807;-30
2022/10/02 08:37:28;;;;;;;9.65;3.42;;;14.30;99.90;;;;;;5020208;27;91136;-31
2022/10/02 08:40:21;;;;;;;6.97;2.88;;;14.40;99.90;;;;;;5025614;27;88580;-31
2022/10/02 08:43:24;;;;;;;13.20;3.78;;;14.60;99.90;;;;;;5022367;27;90349;-33
2022/10/02 08:46:27;;;;;;;10.57;4.03;;;14.70;99.90;;;;;;5028331;27;89929;-32
2022/10/02 08:49:27;;;;;;;10.75;2.95;;;14.90;99.90;;;;;;5015060;28;89379;-32
2022/10/02 08:52:11;;;;;;;7.32;3.92;;;15.00;99.90;;;;;;5014565;28;89139;-32
2022/10/02 08:55:08;;;;;;;6.30;3.75;;;15.00;99.90;;;;;;5016086;28;90321;-31
2022/10/02 08:58:15;;;;;;;4.50;2.47;;;15.10;99.90;;;;;;5017580;28;89727;-33
2022/10/02 09:01:13;;;;;;;11.48;4.05;;;15.10;99.90;;;;;;5017743;28;90012;-34
2022/10/02 09:04:00;;;;;;;7.45;3.22;;;15.30;99.90;;;;;;5017777;28;89739;-33
2022/10/02 09:07:03;;;;;;;10.85;3.45;;;15.30;99.90;;;;;;5017538;28;89216;-30
2022/10/02 09:10:00;;;;;;;7.00;3.13;;;15.50;99.90;;;;;;5016534;28;91901;-32
2022/10/02 09:13:03;;;;;;;7.63;3.60;;;15.50;99.90;;;;;;5016935;28;90480;-31
2022/10/02 09:15:43;;;;;;;5.85;2.35;;;15.60;99.90;;;;;;5018133;28;90326;-32
2022/10/02 09:18:30;;;;;;;10.05;3.67;;;15.70;99.90;;;;;;5017702;28;90437;-33
2022/10/02 09:21:36;;;;;;;9.80;3.85;;;15.90;99.90;;;;;;5017472;28;89862;-35
2022/10/02 09:24:36;;;;;;;10.18;3.22;;;15.90;99.90;;;;;;4975338;28;88630;-31
2022/10/02 09:27:32;;;;;;;10.90;3.90;;;15.90;99.90;;;;;;5017421;28;89701;-34
2022/10/02 09:30:09;;;;;;;13.52;3.42;;;15.90;99.90;;;;;;5018111;28;89924;-32
2022/10/02 09:33:00;;;;;;;11.00;4.47;;;15.80;99.90;;;;;;5017427;28;89748;-30
2022/10/02 09:35:44;;;;;;;9.57;3.90;;;15.80;99.90;;;;;;5017403;28;90171;-33
2022/10/02 09:38:13;;;;;;;10.48;3.72;;;15.80;99.90;;;;;;5017039;28;90035;-31
2022/10/02 09:40:52;;;;;;;11.60;3.70;;;15.90;99.90;;;;;;5016756;28;89150;-33
2022/10/02 09:43:53;;;;;;;8.35;3.17;;;15.80;99.90;;;;;;5016285;28;89920;-33
2022/10/02 09:47:03;;;;;;;7.30;3.90;;;15.80;99.90;;;;;;5017102;28;91209;-31
2022/10/02 09:49:46;;;;;;;9.75;3.58;;;15.70;99.90;;;;;;4995037;28;89271;-33
2022/10/02 09:52:38;;;;;;;11.68;3.88;;;15.60;99.90;;;;;;5016892;27;90135;-34
2022/10/02 09:55:35;;;;;;;5.57;3.08;;;15.70;99.90;;;;;;5017839;28;89783;-32
2022/10/02 09:58:23;;;;;;;8.00;3.63;;;15.80;99.90;;;;;;5017649;28;90224;-34
2022/10/02 10:01:11;;;;;;;9.98;3.55;;;16.10;99.90;;;;;;5017215;28;88864;-33
2022/10/02 10:03:48;;;;;;;7.72;2.83;;;16.40;99.90;;;;;;5017463;28;90244;-32
2022/10/02 10:06:37;;;;;;;8.55;3.63;;;16.40;99.90;;;;;;5024590;27;90283;-30
2022/10/02 10:09:21;;;;;;;8.98;4.40;;;16.30;99.90;;;;;;5016965;28;90220;-31
2022/10/02 10:12:11;;;;;;;7.95;3.63;;;16.10;99.90;;;;;;5016260;28;89046;-32
2022/10/02 10:15:18;;;;;;;8.27;4.32;;;15.70;99.90;;;;;;5016084;28;92192;-32
2022/10/02 10:18:12;;;;;;;8.40;3.23;;;15.30;99.90;;;;;;5022576;27;90732;-33
2022/10/02 10:21:11;;;;;;;6.55;4.18;;;15.10;99.90;;;;;;5005602;28;88462;-33
2022/10/02 10:24:14;;;;;;;8.93;3.83;;;14.90;99.90;;;;;;5015806;28;90859;-32
2022/10/02 10:26:49;;;;;;;11.55;3.10;;;14.70;99.90;;;;;;5016518;28;90144;-31
2022/10/02 10:29:37;;;;;;;7.00;2.78;;;14.70;99.90;;;;;;5015554;28;89291;-30
2022/10/02 10:32:29;;;;;;;6.28;3.90;;;14.50;99.90;;;;;;5016001;28;89955;-34
2022/10/02 10:35:13;;;;;;;5.07;3.10;;;14.40;99.90;;;;;;5016630;28;90498;-32
2022/10/02 10:41:10;;;;;;;9.98;4.22;;;14.40;99.90;;;;;;5016706;28;89987;-31
2022/10/02 10:44:07;;;;;;;8.15;3.20;;;14.50;99.90;;;;;;5005478;28;90741;-33
2022/10/02 10:46:58;;;;;;;8.40;3.65;;;14.70;99.90;;;;;;5002777;28;88202;-32
2022/10/02 10:49:34;;;;;;;9.07;4.25;;;14.80;99.90;;;;;;5015952;28;91740;-32
2022/10/02 10:52:18;;;;;;;15.35;3.47;;;15.00;99.90;;;;;;5015992;28;89559;-31
2022/10/02 10:54:58;;;;;;;9.65;3.53;;;15.20;99.90;;;;;;5016806;28;90084;-31
2022/10/02 10:57:35;;;;;;;6.53;2.97;;;15.30;99.90;;;;;;5016432;28;88673;-34
2022/10/02 11:00:14;;;;;;;10.80;4.65;;;15.50;99.90;;;;;;5015679;28;90635;-33
2022/10/02 11:02:53;;;;;;;10.68;4.57;;;15.60;99.90;;;;;;5015735;27;90487;-30
2022/10/02 11:05:34;;;;;;;11.93;3.83;;;15.70;99.90;;;;;;5019766;28;90578;-31
2022/10/02 11:08:17;;;;;;;8.82;4.15;;;15.70;99.90;;;;;;5019833;28;88761;-33
2022/10/02 11:11:06;;;;;;;13.18;3.65;;;15.80;99.90;;;;;;5018943;28;89347;-33
2022/10/02 11:13:48;;;;;;;15.23;4.13;;;15.80;99.90;;;;;;5019425;28;89870;-30
2022/10/02 11:16:43;;;;;;;14.57;4.97;;;15.90;99.90;;;;;;5019709;28;90348;-33
2022/10/02 11:19:36;;;;;;;8.25;3.15;;;16.00;99.90;;;;;;4989179;27;90507;-31
2022/10/02 11:22:22;;;;;;;13.70;3.42;;;16.10;99.90;;;;;;5018727;28;90998;-30
2022/10/02 11:25:21;;;;;;;5.75;2.50;;;16.20;99.90;;;;;;5018880;27;90138;-33
2022/10/02 11:28:37;;;;;;;11.10;3.72;;;16.30;99.90;;;;;;5019316;28;90501;-31
2022/10/02 11:31:42;;;;;;;7.18;3.28;;;16.40;99.90;;;;;;5019260;27;90270;-31
2022/10/02 11:34:36;;;;;;;7.65;3.05;;;16.40;99.90;;;;;;4990039;28;89665;-31
2022/10/02 11:37:30;;;;;;;8.40;3.60;;;16.10;99.90;;;;;;5007851;27;90607;-33
2022/10/02 11:40:12;;;;;;;8.15;3.15;;;15.90;99.90;;;;;;5004897;28;89539;-31
2022/10/02 11:42:43;;;;;;;8.23;3.33;;;15.70;99.90;;;;;;5019090;28;88856;-31
2022/10/02 11:45:32;;;;;;;7.03;3.38;;;15.60;99.90;;;;;;5019352;28;91080;-31
2022/10/02 11:48:01;;;;;;;9.95;3.65;;;15.50;99.90;;;;;;5018855;28;91733;-33
2022/10/02 11:51:00;;;;;;;17.38;3.65;;;15.40;99.90;;;;;;5018531;28;89734;-31
2022/10/02 11:53:38;;;;;;;7.72;2.97;;;15.30;99.90;;;;;;5019378;28;89376;-32
2022/10/02 11:56:22;;;;;;;14.50;3.03;;;15.20;99.90;;;;;;5019070;28;90198;-29
2022/10/02 11:59:06;;;;;;;19.77;3.03;;;15.20;99.90;;;;;;5018002;28;90570;-30
2022/10/02 12:01:44;;;;;;;7.75;2.78;;;15.20;99.90;;;;;;5018629;28;89314;-32
2022/10/02 12:04:20;;;;;;;9.80;2.65;;;15.20;99.90;;;;;;5018741;28;89740;-33
2022/10/02 12:07:03;;;;;;;8.82;3.85;;;15.20;99.90;;;;;;5018957;28;89600;-32
2022/10/02 12:09:55;;;;;;;8.07;2.60;;;15.20;99.90;;;;;;5018354;28;88918;-33
2022/10/02 12:12:39;;;;;;;8.43;2.58;;;15.20;99.90;;;;;;5018662;28;89686;-32
2022/10/02 12:15:34;;;;;;;7.88;3.05;;;15.10;99.90;;;;;;5018893;27;88364;-33
2022/10/02 12:18:10;;;;;;;9.68;3.58;;;15.20;99.90;;;;;;5018288;28;90247;-32
2022/10/02 12:27:01;;;;;;;6.30;3.30;;;15.90;99.90;;;;;;5018485;28;88954;-33
2022/10/02 12:29:54;;;;;;;9.50;3.83;;;16.10;99.90;;;;;;5018682;28;90995;-31
2022/10/02 12:32:38;;;;;;;6.38;2.63;;;16.20;99.90;;;;;;5017825;28;89627;-33
2022/10/02 12:35:30;;;;;;;7.70;2.47;;;16.30;99.90;;;;;;5017610;28;89960;-30
2022/10/02 12:38:09;;;;;;;7.90;2.45;;;16.30;99.90;;;;;;5018209;28;88537;-33
2022/10/02 12:40:51;;;;;;;11.98;3.05;;;16.20;99.90;;;;;;5017320;28;90455;-33
2022/10/02 12:44:05;;;;;;;17.85;3.08;;;16.10;99.90;;;;;;5017239;28;89736;-31
2022/10/02 12:47:02;;;;;;;9.73;2.72;;;16.10;99.90;;;;;;4944279;28;90520;-35
2022/10/02 12:49:52;;;;;;;5.13;2.72;;;16.20;99.90;;;;;;5042428;22;88666;-31
2022/10/02 12:52:51;;;;;;;8.15;2.40;;;16.10;99.90;;;;;;4977327;28;89660;-32
2022/10/02 12:55:54;;;;;;;6.18;2.35;;;16.00;99.90;;;;;;4975819;28;90710;-32
2022/10/02 12:58:41;;;;;;;15.07;4.50;;;16.10;99.90;;;;;;4977372;28;90675;-33
2022/10/02 13:01:30;;;;;;;7.40;3.20;;;16.20;99.90;;;;;;4995517;28;88696;-32
2022/10/02 13:04:15;;;;;;;8.48;2.38;;;16.30;99.90;;;;;;4997811;28;90453;-32
2022/10/02 13:06:58;;;;;;;4.72;2.38;;;16.40;99.90;;;;;;4998226;28;89481;-34
2022/10/02 13:09:36;;;;;;;6.55;2.35;;;16.60;99.90;;;;;;4996989;28;89910;-31
2022/10/02 13:12:26;;;;;;;14.48;2.83;;;16.60;99.90;;;;;;4997750;28;88588;-32
2022/10/02 13:15:05;;;;;;;7.05;2.83;;;16.70;99.90;;;;;;4997622;28;90195;-35
2022/10/02 13:17:45;;;;;;;6.43;3.05;;;16.80;99.90;;;;;;4997424;28;89763;-31
2022/10/02 13:20:20;;;;;;;10.60;3.45;;;16.80;99.90;;;;;;4996755;28;90157;-32
2022/10/02 13:23:03;;;;;;;8.05;2.88;;;16.90;99.90;;;;;;4997488;28;88943;-34
2022/10/02 13:25:35;;;;;;;7.80;2.17;;;17.10;99.90;;;;;;4980605;28;90308;-33
2022/10/02 13:28:12;;;;;;;8.65;2.60;;;17.10;99.90;;;;;;4976863;28;89766;-29
2022/10/02 13:31:05;;;;;;;4.47;1.40;;;17.10;99.90;;;;;;4965444;28;89883;-30
2022/10/02 13:33:58;;;;;;;6.68;2.78;;;17.20;99.90;;;;;;4977384;28;88474;-32
2022/10/02 13:37:03;;;;;;;2.42;1.83;;;17.20;99.90;;;;;;4976990;28;90245;-30
2022/10/02 13:39:57;;;;;;;7.93;2.25;;;17.00;99.90;;;;;;4936329;28;89668;-33
2022/10/02 13:42:46;;;;;;;6.57;2.30;;;16.80;99.90;;;;;;4976987;28;91435;-31
2022/10/02 13:45:21;;;;;;;11.65;2.33;;;16.50;99.90;;;;;;4977563;28;89752;-33
2022/10/02 13:48:02;;;;;;;8.18;1.83;;;16.60;99.90;;;;;;4976537;28;90456;-31
2022/10/02 13:50:59;;;;;;;5.50;2.60;;;16.60;99.90;;;;;;4974666;28;90599;-32
2022/10/02 13:53:58;;;;;;;6.65;2.72;;;16.70;99.90;;;;;;4957819;28;90538;-32
2022/10/02 13:56:29;;;;;;;8.95;2.17;;;16.70;99.90;;;;;;4967026;28;89393;-32
2022/10/02 13:59:33;;;;;;;6.60;3.03;;;16.80;99.90;;;;;;4976515;28;90051;-32
2022/10/02 14:02:07;;;;;;;3.15;1.42;;;16.80;99.90;;;;;;4977055;28;89896;-31
2022/10/02 14:05:06;;;;;;;4.40;2.08;;;16.90;99.90;;;;;;4996734;28;90099;-33
2022/10/02 14:07:49;;;;;;;10.52;2.78;;;16.90;99.90;;;;;;4992590;28;88927;-31
2022/10/02 14:10:45;;;;;;;7.50;3.28;;;16.90;99.90;;;;;;4996522;28;90401;-32
2022/10/02 14:13:33;;;;;;;5.38;2.05;;;17.10;99.90;;;;;;4997055;28;89420;-31